createdAt,value
2022-11-26T00:00:48.346Z,16.88
2022-11-26T00:03:15.466Z,16.60
2022-11-26T00:05:47.122Z,16.02
2022-11-26T00:08:25.478Z,15.88
2022-11-26T00:10:54.070Z,15.73
2022-11-26T00:13:23.957Z,16.13
2022-11-26T00:15:51.415Z,15.82
2022-11-26T00:18:19.213Z,15.55
2022-11-26T00:20:46.855Z,14.68
2022-11-26T00:23:22.497Z,14.30
2022-11-26T00:25:53.574Z,14.00
2022-11-26T00:28:36.015Z,13.25
2022-11-26T00:31:06.111Z,13.60
2022-11-26T00:33:33.461Z,12.45
2022-11-26T00:36:12.301Z,12.98
2022-11-26T00:38:39.009Z,13.10
2022-11-26T00:41:08.686Z,13.05
2022-11-26T00:43:35.391Z,13.10
2022-11-26T00:46:02.156Z,13.98
2022-11-26T00:48:29.014Z,13.10
2022-11-26T00:50:55.783Z,13.43
2022-11-26T00:53:24.240Z,13.00
2022-11-26T00:55:51.326Z,11.90
2022-11-26T00:58:24.846Z,12.32
2022-11-26T01:00:52.828Z,12.20
2022-11-26T01:03:19.840Z,11.57
2022-11-26T01:05:50.458Z,11.95
2022-11-26T01:08:30.562Z,12.27
2022-11-26T01:10:58.566Z,12.65
2022-11-26T01:13:25.867Z,13.00
2022-11-26T01:15:52.659Z,12.45
2022-11-26T01:18:21.509Z,13.07
2022-11-26T01:20:48.792Z,12.88
2022-11-26T01:23:17.002Z,12.50
2022-11-26T01:25:44.281Z,12.27
2022-11-26T01:28:18.381Z,12.18
2022-11-26T01:30:46.327Z,12.05
2022-11-26T01:33:13.173Z,12.68
2022-11-26T01:35:39.895Z,13.07
2022-11-26T01:38:06.785Z,12.35
2022-11-26T01:40:50.104Z,13.00
2022-11-26T01:43:33.767Z,12.48
2022-11-26T01:46:00.681Z,12.90
2022-11-26T01:48:29.236Z,12.52
2022-11-26T01:51:00.592Z,13.55
2022-11-26T01:53:31.797Z,14.02
2022-11-26T01:56:01.163Z,13.77
2022-11-26T01:58:34.454Z,13.32
2022-11-26T02:01:05.654Z,13.15
2022-11-26T02:03:35.805Z,12.30
2022-11-26T02:06:06.165Z,12.32
2022-11-26T02:08:34.786Z,12.68
2022-11-26T02:11:16.351Z,11.15
2022-11-26T02:13:43.910Z,11.13
2022-11-26T02:16:46.159Z,10.45
2022-11-26T02:19:46.074Z,9.50
2022-11-26T02:23:11.621Z,9.80
2022-11-26T02:25:58.755Z,10.48
2022-11-26T02:29:04.026Z,10.30
2022-11-26T02:31:52.088Z,11.15
2022-11-26T02:34:37.512Z,11.15
2022-11-26T02:37:09.894Z,12.38
2022-11-26T02:39:36.720Z,13.07
2022-11-26T02:42:04.578Z,12.45
2022-11-26T02:44:42.277Z,13.88
2022-11-26T02:47:12.068Z,13.68
2022-11-26T02:49:39.575Z,14.73
2022-11-26T02:52:07.917Z,14.20
2022-11-26T02:54:36.843Z,13.73
2022-11-26T02:57:06.444Z,15.10
2022-11-26T02:59:33.569Z,14.10
2022-11-26T03:02:27.993Z,14.35
2022-11-26T03:04:57.538Z,12.93
2022-11-26T03:07:24.629Z,12.80
2022-11-26T03:09:56.834Z,12.75
2022-11-26T03:12:23.595Z,12.10
2022-11-26T03:14:50.303Z,10.60
2022-11-26T03:17:17.875Z,9.93
2022-11-26T03:19:45.876Z,9.70
2022-11-26T03:22:14.221Z,10.15
2022-11-26T03:24:41.337Z,10.32
2022-11-26T03:27:08.628Z,10.52
2022-11-26T03:29:35.825Z,9.93
2022-11-26T03:32:02.721Z,9.80
2022-11-26T03:34:29.832Z,9.77
2022-11-26T03:36:57.239Z,10.32
2022-11-26T03:39:24.096Z,10.55
2022-11-26T03:41:50.980Z,9.68
2022-11-26T03:44:17.675Z,9.82
2022-11-26T03:46:44.441Z,9.27
2022-11-26T03:49:11.331Z,10.50
2022-11-26T03:51:38.167Z,10.27
2022-11-26T03:54:05.175Z,9.95
2022-11-26T03:56:31.925Z,10.77
2022-11-26T03:58:58.680Z,10.00
2022-11-26T04:01:25.962Z,10.30
2022-11-26T04:03:52.897Z,9.75
2022-11-26T04:06:19.661Z,9.77
2022-11-26T04:08:46.466Z,9.85
2022-11-26T04:11:13.436Z,10.40
2022-11-26T04:13:40.194Z,9.90
2022-11-26T04:16:07.306Z,10.63
2022-11-26T04:18:34.072Z,10.13
2022-11-26T04:21:00.988Z,11.38
2022-11-26T04:23:27.990Z,10.82
2022-11-26T04:25:54.923Z,11.00
2022-11-26T04:28:21.947Z,10.15
2022-11-26T04:30:48.569Z,11.18
2022-11-26T04:33:15.313Z,11.65
2022-11-26T04:35:42.789Z,11.50
2022-11-26T04:38:09.743Z,11.93
2022-11-26T04:40:36.914Z,11.48
2022-11-26T04:43:03.801Z,10.50
2022-11-26T04:45:30.719Z,9.85
2022-11-26T04:47:57.546Z,10.88
2022-11-26T04:50:24.822Z,10.88
2022-11-26T04:52:51.564Z,10.27
2022-11-26T04:55:18.443Z,10.68
2022-11-26T04:57:48.966Z,10.38
2022-11-26T05:00:17.464Z,9.70
2022-11-26T05:02:44.383Z,9.88
2022-11-26T05:05:12.183Z,9.82
2022-11-26T05:07:39.285Z,9.80
2022-11-26T05:10:07.549Z,9.45
2022-11-26T05:12:34.517Z,9.65
2022-11-26T05:15:01.309Z,9.40
2022-11-26T05:17:28.358Z,9.18
2022-11-26T05:19:55.172Z,8.88
2022-11-26T05:22:21.932Z,8.25
2022-11-26T05:24:48.702Z,9.27
2022-11-26T05:27:15.720Z,9.82
2022-11-26T05:29:42.833Z,9.55
2022-11-26T05:32:09.717Z,10.23
2022-11-26T05:34:36.982Z,9.50
2022-11-26T05:37:04.473Z,9.45
2022-11-26T05:39:31.158Z,8.90
2022-11-26T05:41:57.854Z,9.27
2022-11-26T05:44:24.801Z,8.30
2022-11-26T05:46:51.848Z,8.48
2022-11-26T05:49:18.562Z,8.57
2022-11-26T05:51:45.229Z,7.70
2022-11-26T05:54:14.022Z,8.40
2022-11-26T05:56:41.618Z,8.50
2022-11-26T05:59:08.963Z,8.52
2022-11-26T06:01:35.826Z,8.18
2022-11-26T06:04:02.708Z,9.20
2022-11-26T06:06:29.624Z,8.82
2022-11-26T06:08:56.841Z,9.15
2022-11-26T06:11:23.622Z,9.15
2022-11-26T06:13:50.401Z,9.15
2022-11-26T06:16:17.443Z,9.38
2022-11-26T06:18:44.271Z,8.70
2022-11-26T06:21:11.714Z,8.65
2022-11-26T06:23:39.215Z,8.70
2022-11-26T06:26:11.811Z,8.57
2022-11-26T06:28:39.605Z,8.43
2022-11-26T06:31:06.580Z,8.85
2022-11-26T06:33:33.506Z,8.57
2022-11-26T06:36:01.636Z,8.75
2022-11-26T06:38:28.691Z,8.93
2022-11-26T06:41:03.691Z,9.02
2022-11-26T06:43:30.800Z,9.30
2022-11-26T06:46:15.974Z,9.15
2022-11-26T06:48:43.128Z,8.50
2022-11-26T06:51:12.499Z,8.68
2022-11-26T06:53:39.450Z,8.63
2022-11-26T06:56:14.803Z,10.25
2022-11-26T06:58:44.949Z,9.73
2022-11-26T07:01:14.884Z,9.98
2022-11-26T07:03:41.800Z,10.63
2022-11-26T07:06:24.693Z,10.85
2022-11-26T07:08:53.145Z,10.40
2022-11-26T07:11:20.782Z,10.30
2022-11-26T07:13:48.020Z,11.00
2022-11-26T07:16:15.140Z,11.30
2022-11-26T07:18:42.220Z,12.60
2022-11-26T07:21:11.894Z,12.80
2022-11-26T07:23:39.191Z,14.55
2022-11-26T07:26:07.767Z,14.32
2022-11-26T07:28:35.405Z,16.35
2022-11-26T07:31:10.256Z,25.40
2022-11-26T07:33:40.492Z,24.27
2022-11-26T07:36:09.612Z,20.90
2022-11-26T07:38:36.389Z,14.43
2022-11-26T07:41:05.567Z,10.95
2022-11-26T07:43:35.087Z,10.63
2022-11-26T07:46:03.236Z,8.45
2022-11-26T07:48:30.835Z,7.97
2022-11-26T07:50:58.730Z,8.32
2022-11-26T07:53:31.125Z,9.18
2022-11-26T07:55:58.172Z,9.43
2022-11-26T07:58:24.983Z,8.80
2022-11-26T08:00:54.590Z,10.05
2022-11-26T08:03:21.779Z,11.02
2022-11-26T08:05:48.568Z,11.18
2022-11-26T08:08:15.369Z,10.93
2022-11-26T08:10:42.526Z,11.25
2022-11-26T08:13:09.225Z,11.80
2022-11-26T08:15:37.534Z,13.10
2022-11-26T08:18:04.433Z,10.38
2022-11-26T08:20:31.151Z,11.45
2022-11-26T08:22:57.820Z,12.38
2022-11-26T08:25:24.612Z,11.38
2022-11-26T08:27:51.254Z,10.93
2022-11-26T08:30:18.178Z,12.27
2022-11-26T08:32:44.985Z,11.07
2022-11-26T08:35:12.795Z,11.73
2022-11-26T08:37:42.339Z,11.68
2022-11-26T08:40:13.852Z,14.35
2022-11-26T08:42:40.926Z,19.35
2022-11-26T08:45:08.334Z,21.40
2022-11-26T08:47:35.490Z,21.95
2022-11-26T08:50:02.231Z,16.35
2022-11-26T08:52:29.000Z,13.95
2022-11-26T08:54:56.131Z,12.90
2022-11-26T08:57:23.122Z,13.35
2022-11-26T08:59:52.084Z,14.73
2022-11-26T09:02:19.200Z,16.30
2022-11-26T09:04:46.557Z,17.73
2022-11-26T09:07:13.643Z,17.35
2022-11-26T09:09:40.637Z,18.13
2022-11-26T09:12:07.796Z,21.10
2022-11-26T09:14:39.695Z,24.58
2022-11-26T09:17:07.601Z,25.55
2022-11-26T09:19:34.718Z,20.67
2022-11-26T09:22:01.487Z,20.58
2022-11-26T09:24:28.466Z,21.25
2022-11-26T09:26:55.256Z,18.38
2022-11-26T09:29:23.304Z,17.55
2022-11-26T09:34:38.336Z,16.27
2022-11-26T09:37:05.727Z,17.52
2022-11-26T09:39:32.550Z,17.88
2022-11-26T09:42:34.360Z,17.55
2022-11-26T09:45:39.965Z,16.60
2022-11-26T09:48:13.807Z,16.15
2022-11-26T09:50:41.884Z,15.77
2022-11-26T09:53:17.076Z,16.40
2022-11-26T09:55:45.815Z,15.52
2022-11-26T09:58:58.115Z,16.52
2022-11-26T10:01:25.265Z,17.15
2022-11-26T10:03:52.813Z,18.25
2022-11-26T10:06:34.822Z,17.77
2022-11-26T10:09:56.861Z,18.83
2022-11-26T10:13:11.249Z,20.25
2022-11-26T10:16:25.239Z,17.38
2022-11-26T10:22:30.977Z,17.02
2022-11-26T10:25:20.324Z,17.33
2022-11-26T10:28:25.959Z,18.50
2022-11-26T10:31:20.807Z,16.08
2022-11-26T10:37:02.983Z,12.63
2022-11-26T10:40:03.252Z,12.07
2022-11-26T10:43:03.293Z,12.30
2022-11-26T10:45:58.242Z,11.07
2022-11-26T10:48:48.761Z,10.50
2022-11-26T10:51:41.352Z,10.23
2022-11-26T10:54:39.080Z,11.38
2022-11-26T10:57:30.876Z,10.75
2022-11-26T11:00:37.519Z,10.57
2022-11-26T11:03:06.911Z,10.30
2022-11-26T11:05:35.340Z,10.32
2022-11-26T11:08:02.375Z,9.77
2022-11-26T11:10:29.865Z,10.60
2022-11-26T11:13:11.518Z,10.77
2022-11-26T11:15:40.625Z,9.98
2022-11-26T11:18:19.690Z,9.60
2022-11-26T11:20:55.958Z,9.98
2022-11-26T11:23:40.366Z,10.68
2022-11-26T11:26:23.986Z,9.32
2022-11-26T11:28:52.669Z,10.60
2022-11-26T11:31:25.509Z,10.55
2022-11-26T11:33:53.176Z,9.32
2022-11-26T11:36:29.640Z,11.23
2022-11-26T11:38:59.173Z,10.68
2022-11-26T11:41:29.935Z,10.48
2022-11-26T11:44:13.615Z,9.48
2022-11-26T11:46:48.676Z,10.35
2022-11-26T11:49:45.093Z,12.20
2022-11-26T11:52:49.598Z,10.30
2022-11-26T11:55:37.074Z,10.13
2022-11-26T11:58:47.639Z,10.40
2022-11-26T12:01:39.163Z,10.80
2022-11-26T12:04:36.960Z,9.65
2022-11-26T12:07:24.235Z,10.60
2022-11-26T12:10:38.114Z,9.95
2022-11-26T12:13:06.896Z,9.35
2022-11-26T12:15:55.714Z,9.80
2022-11-26T12:18:27.379Z,10.68
2022-11-26T12:20:56.679Z,11.25
2022-11-26T12:23:45.402Z,11.75
2022-11-26T12:26:19.891Z,11.32
2022-11-26T12:28:58.436Z,11.38
2022-11-26T12:31:44.768Z,10.45
2022-11-26T12:34:30.605Z,10.95
2022-11-26T12:37:06.172Z,10.68
2022-11-26T12:39:47.985Z,11.32
2022-11-26T12:42:32.306Z,10.30
2022-11-26T12:45:16.269Z,11.10
2022-11-26T12:48:00.728Z,12.30
2022-11-26T12:50:58.464Z,11.43
2022-11-26T12:53:48.080Z,11.52
2022-11-26T12:56:37.526Z,12.50
2022-11-26T12:59:18.919Z,14.43
2022-11-26T13:01:46.016Z,13.32
2022-11-26T13:04:36.570Z,12.63
2022-11-26T13:07:14.374Z,13.13
2022-11-26T13:09:47.539Z,13.10
2022-11-26T13:12:22.897Z,13.13
2022-11-26T13:15:14.877Z,13.00
2022-11-26T13:20:47.212Z,10.32
2022-11-26T13:24:02.121Z,10.15
2022-11-26T13:27:06.036Z,10.18
2022-11-26T13:29:57.343Z,9.13
2022-11-26T13:32:57.252Z,10.52
2022-11-26T13:36:05.614Z,11.18
2022-11-26T13:39:10.049Z,10.65
2022-11-26T13:42:09.635Z,10.80
2022-11-26T13:44:39.493Z,9.85
2022-11-26T13:47:11.107Z,10.40
2022-11-26T13:49:43.390Z,9.95
2022-11-26T13:52:40.820Z,10.35
2022-11-26T13:55:17.869Z,9.60
2022-11-26T13:57:47.963Z,9.27
2022-11-26T14:00:26.031Z,9.18
2022-11-26T14:02:52.931Z,9.52
2022-11-26T14:05:19.793Z,9.77
2022-11-26T14:07:47.143Z,8.73
2022-11-26T14:10:36.190Z,9.32
2022-11-26T14:13:13.536Z,9.07
2022-11-26T14:16:07.392Z,9.32
2022-11-26T14:19:09.750Z,8.18
2022-11-26T14:21:59.507Z,7.78
2022-11-26T14:25:04.764Z,7.97
2022-11-26T14:30:15.657Z,8.63
2022-11-26T14:32:55.221Z,7.82
2022-11-26T14:35:30.687Z,7.78
2022-11-26T14:38:01.928Z,7.25
2022-11-26T14:40:31.768Z,7.80
2022-11-26T14:43:09.341Z,6.72
2022-11-26T14:45:36.186Z,6.63
2022-11-26T14:48:04.278Z,7.60
2022-11-26T14:50:32.842Z,7.05
2022-11-26T14:53:03.945Z,6.97
2022-11-26T14:55:32.104Z,7.10
2022-11-26T14:58:09.964Z,6.35
2022-11-26T15:00:37.003Z,6.82
2022-11-26T15:03:04.279Z,7.13
2022-11-26T15:05:35.491Z,7.28
2022-11-26T15:08:13.306Z,8.73
2022-11-26T15:10:48.144Z,7.72
2022-11-26T15:13:20.272Z,9.20
2022-11-26T15:15:53.691Z,7.97
2022-11-26T15:18:22.667Z,8.20
2022-11-26T15:20:53.355Z,8.45
2022-11-26T15:23:31.232Z,8.60
2022-11-26T15:26:00.490Z,6.88
2022-11-26T15:28:28.217Z,7.32
2022-11-26T15:31:02.613Z,7.70
2022-11-26T15:33:33.204Z,8.20
2022-11-26T15:36:00.470Z,7.57
2022-11-26T15:38:29.902Z,8.35
2022-11-26T15:41:07.320Z,8.25
2022-11-26T15:43:37.204Z,7.03
2022-11-26T15:46:25.019Z,8.15
2022-11-26T15:48:59.226Z,7.05
2022-11-26T15:51:48.943Z,7.72
2022-11-26T15:54:26.434Z,8.32
2022-11-26T15:57:06.489Z,8.13
2022-11-26T15:59:47.299Z,7.07
2022-11-26T16:02:20.786Z,7.72
2022-11-26T16:04:54.380Z,7.32
2022-11-26T16:07:45.041Z,7.23
2022-11-26T16:10:23.616Z,8.40
2022-11-26T16:13:32.553Z,7.82
2022-11-26T16:16:24.760Z,8.50
2022-11-26T16:19:00.301Z,9.50
2022-11-26T16:21:29.593Z,8.95
2022-11-26T16:23:58.259Z,8.57
2022-11-26T16:26:25.256Z,8.63
2022-11-26T16:28:52.064Z,9.02
2022-11-26T16:31:18.917Z,8.80
2022-11-26T16:33:45.962Z,11.45
2022-11-26T16:36:24.052Z,13.30
2022-11-26T16:38:51.537Z,14.77
2022-11-26T16:41:20.374Z,14.05
2022-11-26T16:43:48.085Z,15.13
2022-11-26T16:46:20.523Z,15.68
2022-11-26T16:48:48.335Z,14.95
2022-11-26T16:51:15.177Z,13.68
2022-11-26T16:54:02.736Z,87.53
2022-11-26T16:56:53.263Z,104.63
2022-11-26T16:59:44.868Z,50.42
2022-11-26T17:02:33.690Z,21.65
2022-11-26T17:05:21.383Z,10.73
2022-11-26T17:08:10.614Z,11.98
2022-11-26T17:10:37.892Z,12.65
2022-11-26T17:13:04.801Z,11.88
2022-11-26T17:15:31.694Z,13.68
2022-11-26T17:18:08.270Z,17.10
2022-11-26T17:20:35.039Z,20.63
2022-11-26T17:23:01.817Z,27.90
2022-11-26T17:25:28.833Z,19.95
2022-11-26T17:27:55.943Z,17.02
2022-11-26T17:30:24.617Z,16.08
2022-11-26T17:32:51.712Z,16.45
2022-11-26T17:35:18.979Z,15.65
2022-11-26T17:37:45.973Z,15.05
2022-11-26T17:40:17.633Z,14.40
2022-11-26T17:42:44.414Z,14.23
2022-11-26T17:45:12.160Z,14.43
2022-11-26T17:47:39.344Z,15.02
2022-11-26T17:50:08.486Z,14.52
2022-11-26T17:52:35.262Z,12.20
2022-11-26T17:55:01.970Z,13.18
2022-11-26T17:57:28.741Z,12.48
2022-11-26T17:59:56.169Z,12.85
2022-11-26T18:02:23.025Z,13.13
2022-11-26T18:04:49.735Z,13.15
2022-11-26T18:07:18.585Z,13.90
2022-11-26T18:09:46.125Z,22.17
2022-11-26T18:12:25.171Z,24.73
2022-11-26T18:14:53.928Z,28.98
2022-11-26T18:17:20.662Z,25.60
2022-11-26T18:19:47.628Z,30.80
2022-11-26T18:22:20.671Z,23.77
2022-11-26T18:24:56.790Z,20.67
2022-11-26T18:27:26.888Z,19.90
2022-11-26T18:29:53.679Z,16.88
2022-11-26T18:32:20.773Z,13.40
2022-11-26T18:34:51.697Z,14.63
2022-11-26T18:37:18.819Z,16.05
2022-11-26T18:39:45.618Z,14.15
2022-11-26T18:45:00.212Z,11.23
2022-11-26T18:47:27.213Z,10.10
2022-11-26T18:49:54.083Z,8.93
2022-11-26T18:52:21.097Z,9.10
2022-11-26T18:54:47.983Z,10.38
2022-11-26T18:57:14.836Z,9.70
2022-11-26T18:59:42.017Z,19.17
2022-11-26T19:02:10.773Z,18.42
2022-11-26T19:04:38.561Z,16.23
2022-11-26T19:07:05.304Z,14.80
2022-11-26T19:09:32.261Z,14.25
2022-11-26T19:11:59.359Z,13.50
2022-11-26T19:14:26.065Z,13.95
2022-11-26T19:16:53.217Z,12.50
2022-11-26T19:19:19.998Z,14.43
2022-11-26T19:21:46.960Z,13.80
2022-11-26T19:24:14.449Z,14.10
2022-11-26T19:26:42.388Z,13.60
2022-11-26T19:29:10.804Z,14.50
2022-11-26T19:31:39.922Z,15.18
2022-11-26T19:34:11.789Z,16.05
2022-11-26T19:36:38.674Z,17.10
2022-11-26T19:39:06.533Z,17.20
2022-11-26T19:41:33.990Z,16.38
2022-11-26T19:44:01.501Z,17.48
2022-11-26T19:46:28.425Z,17.08
2022-11-26T19:48:55.987Z,17.05
2022-11-26T19:51:24.688Z,17.30
2022-11-26T19:53:53.000Z,16.98
2022-11-26T19:56:30.836Z,17.88
2022-11-26T19:58:58.811Z,18.00
2022-11-26T20:01:27.569Z,16.80
2022-11-26T20:03:54.626Z,16.08
2022-11-26T20:06:26.490Z,16.75
2022-11-26T20:08:53.662Z,16.52
2022-11-26T20:11:20.473Z,16.67
2022-11-26T20:13:48.416Z,15.98
2022-11-26T20:16:27.766Z,17.20
2022-11-26T20:18:55.438Z,16.65
2022-11-26T20:21:25.800Z,20.25
2022-11-26T20:23:53.735Z,21.33
2022-11-26T20:26:26.054Z,22.05
2022-11-26T20:28:53.269Z,22.40
2022-11-26T20:31:23.936Z,23.23
2022-11-26T20:33:53.124Z,26.42
2022-11-26T20:36:21.197Z,24.13
2022-11-26T20:38:51.423Z,22.13
2022-11-26T20:41:18.318Z,21.00
2022-11-26T20:43:45.716Z,20.08
2022-11-26T20:46:13.819Z,17.88
2022-11-26T20:48:43.155Z,16.35
2022-11-26T20:51:12.968Z,17.10
2022-11-26T20:53:41.396Z,19.70
2022-11-26T20:56:08.691Z,17.75
2022-11-26T20:58:36.151Z,16.85
2022-11-26T21:01:03.247Z,15.68
2022-11-26T21:03:30.384Z,15.45
2022-11-26T21:06:02.052Z,14.05
2022-11-26T21:08:28.766Z,14.65
2022-11-26T21:10:55.528Z,14.73
2022-11-26T21:13:22.969Z,13.82
2022-11-26T21:15:49.751Z,13.98
2022-11-26T21:18:17.035Z,14.88
2022-11-26T21:20:44.666Z,14.85
2022-11-26T21:23:12.804Z,14.13
2022-11-26T21:25:41.515Z,14.05
2022-11-26T21:28:09.219Z,14.70
2022-11-26T21:30:36.686Z,13.98
2022-11-26T21:33:08.998Z,15.07
2022-11-26T21:35:36.702Z,16.00
2022-11-26T21:38:04.639Z,14.43
2022-11-26T21:40:32.183Z,13.90
2022-11-26T21:42:58.974Z,14.13
2022-11-26T21:45:27.942Z,14.80
2022-11-26T21:47:54.878Z,14.52
2022-11-26T21:50:21.717Z,15.25
2022-11-26T21:52:48.728Z,16.13
2022-11-26T21:55:15.815Z,15.98
2022-11-26T21:57:42.531Z,14.88
2022-11-26T22:00:10.001Z,14.60
2022-11-26T22:02:36.911Z,14.18
2022-11-26T22:05:03.997Z,14.50
2022-11-26T22:07:31.762Z,12.00
2022-11-26T22:09:58.708Z,12.48
2022-11-26T22:12:25.652Z,14.23
2022-11-26T22:14:52.362Z,18.50
2022-11-26T22:17:19.421Z,18.20
2022-11-26T22:19:46.882Z,15.88
2022-11-26T22:22:13.689Z,16.85
2022-11-26T22:24:40.498Z,16.63
2022-11-26T22:27:07.229Z,17.73
2022-11-26T22:29:33.906Z,16.80
2022-11-26T22:32:01.108Z,18.33
2022-11-26T22:34:29.392Z,17.90
2022-11-26T22:36:56.809Z,19.70
2022-11-26T22:39:23.652Z,19.85
2022-11-26T22:41:50.645Z,19.58
2022-11-26T22:44:17.972Z,18.65
2022-11-26T22:46:44.972Z,21.23
2022-11-26T22:49:16.458Z,18.58
2022-11-26T22:51:43.249Z,17.75
2022-11-26T22:54:12.953Z,18.35
2022-11-26T22:56:40.105Z,17.67
2022-11-26T22:59:08.965Z,17.23
2022-11-26T23:01:36.835Z,17.70
2022-11-26T23:04:06.124Z,17.23
2022-11-26T23:06:34.459Z,17.08
2022-11-26T23:09:03.552Z,16.20
2022-11-26T23:11:41.581Z,15.55
2022-11-26T23:14:10.116Z,15.15
2022-11-26T23:16:38.774Z,15.27
2022-11-26T23:19:06.519Z,14.80
2022-11-26T23:21:40.157Z,15.98
2022-11-26T23:24:07.675Z,15.05
2022-11-26T23:26:36.952Z,14.48
2022-11-26T23:29:05.276Z,15.15
2022-11-26T23:31:35.037Z,12.63
2022-11-26T23:34:02.097Z,12.68
2022-11-26T23:36:29.607Z,12.70
2022-11-26T23:38:56.923Z,12.82
2022-11-26T23:41:23.729Z,12.25
2022-11-26T23:43:50.641Z,12.10
2022-11-26T23:46:29.551Z,11.43
2022-11-26T23:48:56.686Z,12.02
2022-11-26T23:51:26.030Z,12.15
2022-11-26T23:53:53.497Z,14.50
2022-11-26T23:56:26.636Z,12.82
2022-11-26T23:58:56.256Z,14.43
